createdAt,value
2022-10-04T00:02:21.004Z,51.50
2022-10-04T00:04:54.076Z,51.50
2022-10-04T00:07:27.186Z,51.50
2022-10-04T00:10:00.793Z,51.40
2022-10-04T00:12:33.509Z,51.40
2022-10-04T00:15:05.120Z,51.30
2022-10-04T00:17:36.174Z,52.10
2022-10-04T00:20:06.169Z,51.40
2022-10-04T00:22:34.796Z,51.30
2022-10-04T00:25:36.915Z,51.30
2022-10-04T00:28:31.114Z,51.20
2022-10-04T00:31:14.871Z,51.20
2022-10-04T00:33:44.693Z,51.30
2022-10-04T00:36:32.762Z,51.20
2022-10-04T00:39:27.235Z,51.20
2022-10-04T00:42:32.335Z,51.10
2022-10-04T00:45:05.564Z,51.20
2022-10-04T00:47:55.820Z,51.10
2022-10-04T00:50:30.626Z,51.00
2022-10-04T00:53:01.641Z,51.10
2022-10-04T00:55:38.745Z,51.00
2022-10-04T00:58:16.546Z,51.10
2022-10-04T01:00:46.193Z,50.90
2022-10-04T01:03:20.155Z,51.00
2022-10-04T01:05:51.821Z,51.00
2022-10-04T01:08:27.107Z,50.90
2022-10-04T01:10:59.927Z,51.00
2022-10-04T01:13:33.315Z,50.90
2022-10-04T01:16:05.011Z,50.90
2022-10-04T01:18:34.867Z,50.90
2022-10-04T01:21:08.118Z,50.90
2022-10-04T01:23:43.748Z,51.50
2022-10-04T01:26:48.339Z,50.90
2022-10-04T01:29:19.209Z,50.80
2022-10-04T01:31:49.787Z,50.70
2022-10-04T01:34:19.620Z,50.70
2022-10-04T01:36:48.997Z,50.70
2022-10-04T01:39:20.557Z,50.80
2022-10-04T01:41:54.138Z,50.70
2022-10-04T01:44:29.522Z,50.70
2022-10-04T01:47:01.785Z,50.60
2022-10-04T01:49:32.647Z,50.50
2022-10-04T01:52:05.704Z,50.60
2022-10-04T01:54:38.674Z,50.60
2022-10-04T01:57:13.601Z,50.50
2022-10-04T01:59:47.563Z,50.60
2022-10-04T02:02:23.212Z,50.50
2022-10-04T02:04:56.021Z,50.50
2022-10-04T02:07:26.476Z,50.60
2022-10-04T02:10:00.597Z,50.60
2022-10-04T02:12:32.005Z,50.60
2022-10-04T02:15:03.005Z,50.60
2022-10-04T02:17:33.240Z,50.50
2022-10-04T02:20:02.997Z,50.50
2022-10-04T02:22:31.821Z,50.50
2022-10-04T02:25:02.025Z,50.50
2022-10-04T02:27:31.483Z,50.60
2022-10-04T02:30:03.522Z,50.60
2022-10-04T02:32:53.526Z,50.50
2022-10-04T02:35:21.705Z,50.50
2022-10-04T02:37:54.589Z,50.60
2022-10-04T02:40:30.206Z,50.50
2022-10-04T02:43:04.426Z,50.50
2022-10-04T02:45:41.104Z,50.50
2022-10-04T02:48:22.840Z,50.50
2022-10-04T02:50:54.970Z,50.50
2022-10-04T02:53:28.324Z,50.50
2022-10-04T02:55:58.613Z,50.40
2022-10-04T02:58:28.204Z,50.40
2022-10-04T03:00:59.269Z,50.30
2022-10-04T03:03:29.624Z,50.40
2022-10-04T03:06:02.813Z,50.40
2022-10-04T03:08:35.413Z,50.40
2022-10-04T03:11:06.493Z,50.40
2022-10-04T03:13:37.255Z,50.40
2022-10-04T03:16:05.983Z,50.40
2022-10-04T03:18:35.828Z,50.30
2022-10-04T03:21:08.892Z,50.40
2022-10-04T03:23:37.580Z,50.40
2022-10-04T03:26:18.772Z,50.30
2022-10-04T03:28:47.140Z,50.40
2022-10-04T03:31:15.889Z,50.20
2022-10-04T03:33:45.398Z,50.40
2022-10-04T03:36:17.376Z,50.30
2022-10-04T03:38:47.413Z,50.40
2022-10-04T03:41:18.456Z,50.90
2022-10-04T03:43:50.432Z,50.30
2022-10-04T03:46:20.015Z,50.30
2022-10-04T03:48:51.234Z,50.20
2022-10-04T03:51:22.735Z,50.30
2022-10-04T03:53:53.671Z,50.30
2022-10-04T03:56:27.944Z,50.20
2022-10-04T03:58:57.209Z,50.40
2022-10-04T04:01:36.427Z,50.20
2022-10-04T04:04:15.252Z,50.20
2022-10-04T04:06:51.661Z,50.30
2022-10-04T04:09:24.720Z,50.30
2022-10-04T04:11:58.487Z,50.30
2022-10-04T04:14:28.461Z,50.30
2022-10-04T04:17:16.346Z,50.20
2022-10-04T04:19:45.312Z,50.30
2022-10-04T04:22:17.795Z,50.30
2022-10-04T04:24:46.696Z,50.20
2022-10-04T04:27:18.950Z,50.20
2022-10-04T04:29:51.778Z,50.30
2022-10-04T04:32:24.985Z,50.30
2022-10-04T04:34:54.975Z,50.20
2022-10-04T04:37:22.826Z,50.20
2022-10-04T04:39:55.292Z,50.30
2022-10-04T04:42:34.190Z,50.20
2022-10-04T04:45:05.732Z,50.20
2022-10-04T04:47:37.367Z,49.90
2022-10-04T04:50:08.607Z,51.20
2022-10-04T04:52:38.682Z,52.30
2022-10-04T04:55:16.971Z,52.30
2022-10-04T04:57:47.326Z,52.30
2022-10-04T05:00:20.050Z,52.10
2022-10-04T05:02:58.838Z,50.80
2022-10-04T05:05:28.843Z,51.70
2022-10-04T05:08:23.708Z,51.80
2022-10-04T05:10:59.153Z,51.70
2022-10-04T05:13:35.396Z,51.40
2022-10-04T05:16:03.827Z,51.10
2022-10-04T05:18:34.336Z,51.60
2022-10-04T05:21:08.711Z,51.80
2022-10-04T05:23:37.026Z,51.90
2022-10-04T05:26:10.694Z,50.50
2022-10-04T05:28:40.527Z,49.50
2022-10-04T05:31:28.639Z,49.20
2022-10-04T05:33:59.321Z,49.30
2022-10-04T05:36:48.249Z,49.50
2022-10-04T05:39:26.171Z,49.70
2022-10-04T05:42:01.385Z,49.70
2022-10-04T05:44:32.945Z,50.00
2022-10-04T05:47:03.269Z,50.10
2022-10-04T05:49:36.732Z,50.50
2022-10-04T05:52:14.978Z,50.60
2022-10-04T05:54:43.693Z,50.70
2022-10-04T05:57:38.454Z,50.90
2022-10-04T06:00:15.812Z,51.00
2022-10-04T06:03:20.308Z,51.70
2022-10-04T06:05:53.838Z,51.90
2022-10-04T06:08:37.685Z,51.90
2022-10-04T06:11:13.795Z,51.60
2022-10-04T06:14:02.769Z,51.40
2022-10-04T06:16:49.303Z,51.20
2022-10-04T06:20:01.622Z,51.10
2022-10-04T06:22:29.914Z,50.90
2022-10-04T06:25:02.158Z,50.80
2022-10-04T06:27:36.011Z,50.80
2022-10-04T06:30:06.793Z,50.70
2022-10-04T06:32:59.905Z,50.60
2022-10-04T06:35:47.917Z,50.60
2022-10-04T06:38:38.449Z,50.40
2022-10-04T06:41:39.069Z,50.20
2022-10-04T06:44:27.477Z,50.30
2022-10-04T06:47:06.176Z,50.10
2022-10-04T06:49:46.470Z,50.00
2022-10-04T06:52:49.514Z,50.00
2022-10-04T06:55:39.970Z,50.00
2022-10-04T06:58:37.440Z,49.70
2022-10-04T07:01:15.160Z,49.90
2022-10-04T07:03:54.342Z,49.80
2022-10-04T07:06:28.844Z,49.40
2022-10-04T07:09:02.741Z,49.30
2022-10-04T07:11:42.922Z,49.20
2022-10-04T07:14:16.632Z,49.00
2022-10-04T07:16:49.160Z,48.80
2022-10-04T07:19:36.214Z,48.50
2022-10-04T07:22:17.890Z,48.50
2022-10-04T07:24:58.610Z,48.20
2022-10-04T07:27:33.536Z,48.40
2022-10-04T07:30:14.836Z,48.00
2022-10-04T07:32:46.991Z,47.90
2022-10-04T07:35:21.591Z,47.70
2022-10-04T07:37:59.221Z,47.70
2022-10-04T07:40:31.669Z,47.20
2022-10-04T07:43:06.253Z,46.90
2022-10-04T07:45:36.401Z,46.40
2022-10-04T07:48:11.989Z,48.30
2022-10-04T07:50:45.950Z,49.70
2022-10-04T07:53:19.361Z,50.00
2022-10-04T07:55:56.417Z,50.20
2022-10-04T07:58:46.035Z,49.70
2022-10-04T08:01:27.957Z,49.00
2022-10-04T08:04:17.205Z,48.50
2022-10-04T08:06:57.259Z,48.00
2022-10-04T08:09:38.803Z,47.40
2022-10-04T08:12:17.624Z,47.90
2022-10-04T08:14:54.466Z,47.60
2022-10-04T08:17:34.089Z,47.30
2022-10-04T08:20:24.633Z,47.00
2022-10-04T08:23:13.758Z,46.90
2022-10-04T08:25:57.999Z,46.70
2022-10-04T08:28:53.679Z,46.20
2022-10-04T08:31:34.765Z,46.00
2022-10-04T08:34:21.424Z,45.20
2022-10-04T08:37:02.244Z,45.40
2022-10-04T08:39:48.043Z,45.30
2022-10-04T08:42:48.928Z,45.00
2022-10-04T08:45:34.825Z,44.30
2022-10-04T08:48:52.693Z,44.10
2022-10-04T08:52:00.557Z,42.40
2022-10-04T08:55:01.387Z,42.30
2022-10-04T08:58:02.652Z,41.30
2022-10-04T09:00:50.558Z,41.30
2022-10-04T09:03:58.966Z,40.80
2022-10-04T09:06:38.481Z,40.40
2022-10-04T09:09:24.837Z,38.70
2022-10-04T09:12:12.166Z,38.80
2022-10-04T09:15:15.593Z,38.40
2022-10-04T09:17:54.580Z,38.20
2022-10-04T09:20:38.713Z,38.20
2022-10-04T09:23:20.807Z,37.80
2022-10-04T09:25:50.616Z,37.40
2022-10-04T09:28:36.211Z,37.40
2022-10-04T09:31:16.046Z,34.60
2022-10-04T09:33:53.097Z,33.80
2022-10-04T09:36:52.444Z,33.80
2022-10-04T09:39:31.232Z,33.00
2022-10-04T09:42:10.979Z,32.80
2022-10-04T09:44:58.687Z,32.80
2022-10-04T09:47:37.610Z,31.30
2022-10-04T09:50:21.189Z,31.90
2022-10-04T09:52:54.373Z,31.20
2022-10-04T09:55:35.249Z,31.30
2022-10-04T09:58:15.027Z,31.00
2022-10-04T10:00:45.668Z,30.20
2022-10-04T10:03:28.907Z,30.40
2022-10-04T10:06:05.169Z,30.60
2022-10-04T10:08:37.496Z,30.40
2022-10-04T10:11:25.772Z,29.90
2022-10-04T10:14:03.733Z,29.40
2022-10-04T10:16:39.118Z,29.30
2022-10-04T10:19:28.041Z,29.30
2022-10-04T10:22:00.990Z,28.80
2022-10-04T10:24:45.841Z,28.80
2022-10-04T10:27:23.863Z,28.80
2022-10-04T10:30:04.479Z,28.60
2022-10-04T10:32:41.203Z,28.80
2022-10-04T10:35:24.785Z,28.80
2022-10-04T10:38:14.585Z,28.30
2022-10-04T10:40:49.330Z,28.30
2022-10-04T10:43:29.399Z,28.30
2022-10-04T10:46:19.148Z,28.20
2022-10-04T10:49:03.076Z,28.10
2022-10-04T10:51:57.226Z,28.10
2022-10-04T10:54:59.786Z,28.20
2022-10-04T10:57:58.891Z,28.20
2022-10-04T11:00:43.505Z,28.10
2022-10-04T11:03:40.006Z,27.90
2022-10-04T11:06:35.715Z,27.90
2022-10-04T11:09:30.917Z,28.00
2022-10-04T11:12:39.066Z,27.90
2022-10-04T11:15:25.939Z,28.10
2022-10-04T11:18:12.555Z,27.90
2022-10-04T11:21:06.285Z,26.90
2022-10-04T11:24:09.041Z,26.60
2022-10-04T11:26:59.863Z,26.70
2022-10-04T11:29:47.672Z,26.90
2022-10-04T11:33:03.073Z,26.90
2022-10-04T11:36:03.731Z,27.10
2022-10-04T11:38:52.238Z,27.00
2022-10-04T11:41:23.668Z,26.20
2022-10-04T11:44:21.148Z,25.70
2022-10-04T11:46:57.318Z,25.80
2022-10-04T11:49:43.823Z,26.20
2022-10-04T11:52:32.020Z,26.00
2022-10-04T11:55:36.436Z,26.00
2022-10-04T11:58:15.752Z,26.10
2022-10-04T12:01:08.859Z,26.00
2022-10-04T12:04:03.364Z,26.00
2022-10-04T12:06:44.490Z,26.00
2022-10-04T12:09:22.481Z,25.90
2022-10-04T12:12:38.841Z,26.30
2022-10-04T12:15:39.527Z,26.30
2022-10-04T12:18:52.777Z,25.90
2022-10-04T12:21:42.400Z,25.60
2022-10-04T12:24:21.879Z,26.60
2022-10-04T12:27:09.457Z,27.10
2022-10-04T12:30:09.790Z,27.20
2022-10-04T12:32:42.957Z,27.20
2022-10-04T12:35:27.594Z,27.40
2022-10-04T12:38:22.560Z,27.50
2022-10-04T12:40:58.365Z,27.20
2022-10-04T12:43:37.085Z,27.60
2022-10-04T12:46:12.084Z,27.70
2022-10-04T12:48:56.713Z,27.70
2022-10-04T12:51:38.265Z,27.90
2022-10-04T12:54:34.501Z,28.00
2022-10-04T12:57:44.148Z,28.50
2022-10-04T13:00:20.009Z,28.40
2022-10-04T13:03:12.512Z,28.40
2022-10-04T13:05:54.265Z,28.30
2022-10-04T13:08:32.664Z,28.30
2022-10-04T13:11:29.876Z,28.20
2022-10-04T13:14:16.022Z,28.20
2022-10-04T13:19:50.269Z,28.20
2022-10-04T13:22:56.561Z,28.20
2022-10-04T13:26:03.348Z,28.20
2022-10-04T13:28:40.006Z,28.40
2022-10-04T13:31:15.530Z,28.80
2022-10-04T13:33:50.259Z,29.00
2022-10-04T13:36:26.683Z,28.90
2022-10-04T13:39:31.672Z,28.70
2022-10-04T13:42:12.924Z,28.40
2022-10-04T13:45:04.337Z,26.60
2022-10-04T13:47:53.066Z,26.70
2022-10-04T13:50:36.220Z,26.60
2022-10-04T13:53:34.547Z,26.70
2022-10-04T13:56:25.735Z,26.60
2022-10-04T13:59:05.457Z,26.80
2022-10-04T14:02:10.439Z,26.80
2022-10-04T14:05:17.569Z,26.80
2022-10-04T14:08:12.600Z,26.40
2022-10-04T14:11:18.202Z,27.00
2022-10-04T14:14:10.335Z,26.70
2022-10-04T14:17:05.283Z,24.60
2022-10-04T14:19:58.388Z,25.30
2022-10-04T14:23:04.683Z,25.00
2022-10-04T14:26:08.413Z,24.80
2022-10-04T14:29:13.255Z,24.50
2022-10-04T14:32:05.267Z,24.90
2022-10-04T14:34:58.228Z,24.40
2022-10-04T14:37:55.765Z,25.00
2022-10-04T14:40:46.503Z,24.20
2022-10-04T14:43:43.079Z,23.80
2022-10-04T14:46:22.603Z,23.70
2022-10-04T14:49:05.142Z,23.80
2022-10-04T14:51:48.201Z,24.40
2022-10-04T14:54:30.289Z,24.40
2022-10-04T14:57:05.169Z,24.20
2022-10-04T14:59:56.424Z,24.70
2022-10-04T15:03:01.673Z,24.50
2022-10-04T15:05:59.927Z,23.80
2022-10-04T15:09:00.145Z,23.90
2022-10-04T15:12:21.551Z,24.50
2022-10-04T15:14:46.580Z,25.20
2022-10-04T15:17:28.008Z,25.30
2022-10-04T15:20:20.082Z,25.40
2022-10-04T15:22:55.192Z,26.70
2022-10-04T15:25:44.031Z,28.20
2022-10-04T15:28:42.668Z,26.20
2022-10-04T15:31:18.695Z,26.50
2022-10-04T15:34:01.723Z,27.10
2022-10-04T15:37:03.848Z,26.80
2022-10-04T15:39:58.899Z,26.20
2022-10-04T15:42:30.383Z,26.30
2022-10-04T15:45:18.714Z,26.80
2022-10-04T15:48:21.787Z,27.70
2022-10-04T15:51:01.680Z,28.70
2022-10-04T15:53:46.436Z,28.60
2022-10-04T15:56:27.976Z,28.70
2022-10-04T15:59:30.561Z,28.30
2022-10-04T16:02:38.126Z,27.80
2022-10-04T16:05:19.544Z,28.00
2022-10-04T16:08:29.570Z,28.40
2022-10-04T16:11:25.115Z,28.80
2022-10-04T16:14:21.686Z,30.20
2022-10-04T16:17:18.797Z,29.50
2022-10-04T16:20:06.050Z,29.10
2022-10-04T16:22:35.308Z,29.40
2022-10-04T16:25:37.034Z,30.50
2022-10-04T16:28:13.353Z,30.50
2022-10-04T16:30:48.500Z,30.70
2022-10-04T16:33:31.221Z,30.70
2022-10-04T16:36:11.977Z,31.40
2022-10-04T16:39:07.650Z,31.40
2022-10-04T16:41:42.326Z,31.70
2022-10-04T16:44:28.951Z,32.00
2022-10-04T16:47:01.429Z,32.30
2022-10-04T16:49:40.222Z,32.40
2022-10-04T16:52:46.070Z,32.60
2022-10-04T16:55:38.011Z,32.80
2022-10-04T16:58:50.943Z,33.10
2022-10-04T17:02:01.577Z,33.20
2022-10-04T17:05:05.007Z,33.70
2022-10-04T17:07:40.857Z,33.70
2022-10-04T17:10:21.269Z,34.00
2022-10-04T17:12:56.620Z,34.00
2022-10-04T17:15:47.883Z,34.00
2022-10-04T17:18:27.163Z,34.00
2022-10-04T17:21:04.157Z,34.10
2022-10-04T17:24:03.432Z,34.20
2022-10-04T17:26:48.948Z,34.20
2022-10-04T17:29:38.502Z,34.30
2022-10-04T17:32:17.591Z,34.60
2022-10-04T17:35:00.323Z,34.50
2022-10-04T17:37:39.885Z,34.80
2022-10-04T17:40:33.299Z,34.70
2022-10-04T17:43:08.287Z,34.90
2022-10-04T17:46:06.528Z,35.00
2022-10-04T17:49:01.127Z,35.20
2022-10-04T17:51:59.807Z,35.20
2022-10-04T17:54:49.584Z,35.30
2022-10-04T17:57:26.320Z,35.60
2022-10-04T18:00:06.777Z,35.70
2022-10-04T18:02:50.512Z,35.80
2022-10-04T18:05:22.609Z,35.90
2022-10-04T18:07:57.114Z,36.00
2022-10-04T18:10:32.152Z,36.10
2022-10-04T18:13:04.790Z,36.20
2022-10-04T18:15:37.524Z,36.20
2022-10-04T18:18:18.987Z,36.40
2022-10-04T18:21:05.358Z,36.40
2022-10-04T18:23:37.024Z,36.50
2022-10-04T18:26:17.621Z,36.60
2022-10-04T18:28:46.220Z,36.70
2022-10-04T18:31:33.469Z,36.70
2022-10-04T18:34:17.439Z,36.90
2022-10-04T18:36:58.651Z,37.00
2022-10-04T18:39:26.726Z,37.00
2022-10-04T18:42:16.698Z,37.00
2022-10-04T18:44:48.732Z,37.10
2022-10-04T18:47:21.422Z,37.10
2022-10-04T18:49:53.116Z,37.30
2022-10-04T18:52:39.001Z,37.30
2022-10-04T18:55:20.380Z,37.40
2022-10-04T18:58:19.717Z,37.60
2022-10-04T19:01:15.841Z,37.60
2022-10-04T19:03:51.491Z,37.70
2022-10-04T19:06:25.652Z,37.70
2022-10-04T19:09:04.675Z,37.70
2022-10-04T19:11:40.974Z,37.70
2022-10-04T19:14:23.554Z,37.80
2022-10-04T19:17:01.803Z,37.90
2022-10-04T19:19:44.035Z,37.90
2022-10-04T19:22:37.682Z,37.90
2022-10-04T19:25:39.359Z,37.90
2022-10-04T19:28:14.343Z,38.00
2022-10-04T19:31:12.268Z,38.00
2022-10-04T19:33:47.093Z,38.20
2022-10-04T19:36:35.901Z,38.30
2022-10-04T19:39:17.113Z,38.20
2022-10-04T19:41:59.885Z,37.40
2022-10-04T19:44:37.995Z,36.30
2022-10-04T19:47:21.452Z,36.80
2022-10-04T19:49:56.814Z,37.20
2022-10-04T19:52:36.473Z,37.10
2022-10-04T19:55:07.259Z,37.70
2022-10-04T19:57:39.370Z,37.30
2022-10-04T20:00:12.895Z,37.20
2022-10-04T20:02:48.503Z,37.20
2022-10-04T20:05:20.187Z,37.30
2022-10-04T20:07:52.857Z,37.30
2022-10-04T20:10:33.481Z,37.40
2022-10-04T20:13:25.274Z,63.00
2022-10-04T23:00:44.783Z,67.00
